createdAt,value
2023-02-11T00:00:39.480Z,59.88
2023-02-11T00:02:00.599Z,49.40
2023-02-11T00:03:21.729Z,52.83
2023-02-11T00:04:42.358Z,36.83
2023-02-11T00:06:05.543Z,40.45
2023-02-11T00:07:28.968Z,43.60
2023-02-11T00:08:49.846Z,47.75
2023-02-11T00:10:10.605Z,46.50
2023-02-11T00:11:31.190Z,56.10
2023-02-11T00:12:51.738Z,48.80
2023-02-11T00:14:12.577Z,50.70
2023-02-11T00:15:33.595Z,50.97
2023-02-11T00:16:54.812Z,42.63
2023-02-11T00:18:15.749Z,46.83
2023-02-11T00:19:36.580Z,55.95
2023-02-11T00:20:57.182Z,40.40
2023-02-11T00:22:18.463Z,46.78
2023-02-11T00:23:40.721Z,41.55
2023-02-11T00:25:01.416Z,38.83
2023-02-11T00:26:24.510Z,44.10
2023-02-11T00:27:45.243Z,48.85
2023-02-11T00:29:06.120Z,54.33
2023-02-11T00:30:26.904Z,50.35
2023-02-11T00:31:47.958Z,43.60
2023-02-11T00:33:09.041Z,54.72
2023-02-11T00:34:29.365Z,44.78
2023-02-11T00:35:50.519Z,49.50
2023-02-11T00:37:11.770Z,42.63
2023-02-11T00:38:32.684Z,44.63
2023-02-11T00:39:55.046Z,43.85
2023-02-11T00:41:18.199Z,47.97
2023-02-11T00:42:39.115Z,48.40
2023-02-11T00:44:00.105Z,37.35
2023-02-11T00:45:21.115Z,43.20
2023-02-11T00:46:41.782Z,38.80
2023-02-11T00:48:02.299Z,42.42
2023-02-11T00:49:25.000Z,50.60
2023-02-11T00:50:45.950Z,43.60
2023-02-11T00:52:07.062Z,48.80
2023-02-11T00:53:27.915Z,43.65
2023-02-11T00:54:48.393Z,37.25
2023-02-11T00:56:10.551Z,43.90
2023-02-11T00:57:31.208Z,40.03
2023-02-11T00:58:52.313Z,36.63
2023-02-11T01:00:14.185Z,37.33
2023-02-11T01:01:34.999Z,34.88
2023-02-11T01:02:56.060Z,32.95
2023-02-11T01:04:17.055Z,38.08
2023-02-11T01:05:37.870Z,36.38
2023-02-11T01:06:58.444Z,36.35
2023-02-11T01:08:19.057Z,39.95
2023-02-11T01:09:39.798Z,47.20
2023-02-11T01:11:02.302Z,43.53
2023-02-11T01:12:24.396Z,35.00
2023-02-11T01:13:44.949Z,44.22
2023-02-11T01:15:07.458Z,39.55
2023-02-11T01:16:28.175Z,44.03
2023-02-11T01:17:48.762Z,39.87
2023-02-11T01:19:09.770Z,39.42
2023-02-11T01:20:30.302Z,43.53
2023-02-11T01:21:51.141Z,36.78
2023-02-11T01:23:12.048Z,41.17
2023-02-11T01:24:33.248Z,36.17
2023-02-11T01:25:53.923Z,34.28
2023-02-11T01:27:14.686Z,44.63
2023-02-11T01:28:36.835Z,47.45
2023-02-11T01:29:57.396Z,32.17
2023-02-11T01:31:18.352Z,52.58
2023-02-11T01:32:39.297Z,42.00
2023-02-11T01:33:59.839Z,46.22
2023-02-11T01:35:20.548Z,39.22
2023-02-11T01:36:41.574Z,36.17
2023-02-11T01:38:02.166Z,48.10
2023-02-11T01:39:23.021Z,46.22
2023-02-11T01:40:48.029Z,43.78
2023-02-11T01:42:10.601Z,47.70
2023-02-11T01:43:33.309Z,38.58
2023-02-11T01:44:57.506Z,48.78
2023-02-11T01:46:25.049Z,45.47
2023-02-11T01:47:46.543Z,43.35
2023-02-11T01:50:29.456Z,54.63
2023-02-11T01:53:12.851Z,49.05
2023-02-11T01:54:36.415Z,57.50
2023-02-11T01:55:57.971Z,49.55
2023-02-11T01:57:20.585Z,40.35
2023-02-11T01:58:42.519Z,38.60
2023-02-11T02:00:09.747Z,48.72
2023-02-11T02:01:31.885Z,43.30
2023-02-11T02:02:56.485Z,46.15
2023-02-11T02:04:18.925Z,43.97
2023-02-11T02:05:42.154Z,46.53
2023-02-11T02:07:05.720Z,41.40
2023-02-11T02:08:30.192Z,45.90
2023-02-11T02:09:56.119Z,40.30
2023-02-11T02:11:16.761Z,52.22
2023-02-11T02:12:37.605Z,39.75
2023-02-11T02:13:58.197Z,48.67
2023-02-11T02:15:23.531Z,45.38
2023-02-11T02:16:45.038Z,55.10
2023-02-11T02:18:22.663Z,42.67
2023-02-11T02:20:04.269Z,41.60
2023-02-11T02:22:05.380Z,49.60
2023-02-11T02:23:35.772Z,51.30
2023-02-11T02:24:59.769Z,47.95
2023-02-11T02:26:41.977Z,49.65
2023-02-11T02:28:15.779Z,45.70
2023-02-11T02:30:08.812Z,46.28
2023-02-11T02:31:49.729Z,49.15
2023-02-11T02:33:24.470Z,48.85
2023-02-11T02:34:50.130Z,47.22
2023-02-11T02:36:15.763Z,41.80
2023-02-11T02:37:40.451Z,48.78
2023-02-11T02:39:06.052Z,58.22
2023-02-11T02:40:31.645Z,44.40
2023-02-11T02:41:53.100Z,51.90
2023-02-11T02:43:14.253Z,46.42
2023-02-11T02:44:35.205Z,40.33
2023-02-11T02:45:56.133Z,55.55
2023-02-11T02:47:16.927Z,52.83
2023-02-11T02:48:38.747Z,35.90
2023-02-11T02:49:59.831Z,45.58
2023-02-11T02:51:58.216Z,56.78
2023-02-11T02:53:25.013Z,44.75
2023-02-11T02:55:07.317Z,41.63
2023-02-11T02:56:33.642Z,55.75
2023-02-11T02:58:04.622Z,45.45
2023-02-11T02:59:36.223Z,37.85
2023-02-11T03:01:00.762Z,47.95
2023-02-11T03:02:25.070Z,45.50
2023-02-11T03:03:51.510Z,39.42
2023-02-11T03:05:17.610Z,50.95
2023-02-11T03:06:46.113Z,56.40
2023-02-11T03:08:09.659Z,46.70
2023-02-11T03:09:34.014Z,45.72
2023-02-11T03:10:55.713Z,50.53
2023-02-11T03:12:16.992Z,50.45
2023-02-11T03:13:39.977Z,46.75
2023-02-11T03:15:02.153Z,61.45
2023-02-11T03:16:26.650Z,53.00
2023-02-11T03:17:50.863Z,50.25
2023-02-11T03:19:14.219Z,62.38
2023-02-11T03:20:36.759Z,52.72
2023-02-11T03:21:58.100Z,56.30
2023-02-11T03:23:22.160Z,56.70
2023-02-11T03:24:42.793Z,57.95
2023-02-11T03:26:06.143Z,58.30
2023-02-11T03:27:32.721Z,57.80
2023-02-11T03:28:59.254Z,46.97
2023-02-11T03:30:22.981Z,54.10
2023-02-11T03:31:51.452Z,48.80
2023-02-11T03:33:16.994Z,51.17
2023-02-11T03:34:43.073Z,51.13
2023-02-11T03:36:07.888Z,49.60
2023-02-11T03:37:32.342Z,56.20
2023-02-11T03:38:57.106Z,52.92
2023-02-11T03:40:20.559Z,65.28
2023-02-11T03:41:42.597Z,65.65
2023-02-11T03:43:07.993Z,54.75
2023-02-11T03:44:31.549Z,68.18
2023-02-11T03:45:53.844Z,53.30
2023-02-11T03:47:15.815Z,57.08
2023-02-11T03:48:40.172Z,59.42
2023-02-11T03:50:04.002Z,60.50
2023-02-11T03:51:25.807Z,61.88
2023-02-11T03:52:49.289Z,48.92
2023-02-11T03:54:18.655Z,61.75
2023-02-11T03:55:40.465Z,62.17
2023-02-11T03:57:01.648Z,53.72
2023-02-11T03:58:22.661Z,63.25
2023-02-11T03:59:54.119Z,57.38
2023-02-11T04:01:15.411Z,48.53
2023-02-11T04:02:37.288Z,60.53
2023-02-11T04:03:57.794Z,55.75
2023-02-11T04:05:20.148Z,45.78
2023-02-11T04:06:40.897Z,54.55
2023-02-11T04:08:01.784Z,63.80
2023-02-11T04:09:22.656Z,59.97
2023-02-11T04:10:43.292Z,57.95
2023-02-11T04:12:04.763Z,54.10
2023-02-11T04:13:25.868Z,59.67
2023-02-11T04:14:46.454Z,64.68
2023-02-11T04:16:07.443Z,59.38
2023-02-11T04:17:28.121Z,59.17
2023-02-11T04:18:49.172Z,60.58
2023-02-11T04:20:11.266Z,57.30
2023-02-11T04:21:33.180Z,58.63
2023-02-11T04:22:53.636Z,58.67
2023-02-11T04:24:14.331Z,64.65
2023-02-11T04:25:35.311Z,62.08
2023-02-11T04:26:56.199Z,63.17
2023-02-11T04:28:18.928Z,58.88
2023-02-11T04:29:39.408Z,75.03
2023-02-11T04:31:00.200Z,60.28
2023-02-11T04:32:20.837Z,65.15
2023-02-11T04:33:41.675Z,64.20
2023-02-11T04:35:02.535Z,56.33
2023-02-11T04:36:23.475Z,66.03
2023-02-11T04:37:45.802Z,57.15
2023-02-11T04:39:06.399Z,68.25
2023-02-11T04:40:27.045Z,77.15
2023-02-11T04:41:47.759Z,59.80
2023-02-11T04:43:08.326Z,66.32
2023-02-11T04:44:28.673Z,69.90
2023-02-11T04:45:49.981Z,77.97
2023-02-11T04:47:11.344Z,54.53
2023-02-11T04:48:32.426Z,52.40
2023-02-11T04:49:53.394Z,75.85
2023-02-11T04:51:14.062Z,60.88
2023-02-11T04:52:35.010Z,68.95
2023-02-11T04:53:57.207Z,66.25
2023-02-11T04:55:18.641Z,68.30
2023-02-11T04:56:39.420Z,63.47
2023-02-11T04:58:00.136Z,55.95
2023-02-11T04:59:21.421Z,69.38
2023-02-11T05:00:42.110Z,69.68
2023-02-11T05:02:03.050Z,69.85
2023-02-11T05:03:23.965Z,69.85
2023-02-11T05:04:45.059Z,69.00
2023-02-11T05:06:06.626Z,69.72
2023-02-11T05:07:28.131Z,67.45
2023-02-11T05:08:48.894Z,69.95
2023-02-11T05:10:10.920Z,81.43
2023-02-11T05:11:31.705Z,74.53
2023-02-11T05:12:55.332Z,76.93
2023-02-11T05:14:16.369Z,77.97
2023-02-11T05:15:37.318Z,75.50
2023-02-11T05:16:58.271Z,84.80
2023-02-11T05:18:18.936Z,96.50
2023-02-11T05:19:39.636Z,70.70
2023-02-11T05:21:00.303Z,76.97
2023-02-11T05:22:20.991Z,84.55
2023-02-11T05:23:42.170Z,66.97
2023-02-11T05:25:02.837Z,75.85
2023-02-11T05:26:24.938Z,92.15
2023-02-11T05:27:45.606Z,79.25
2023-02-11T05:29:06.230Z,81.75
2023-02-11T05:30:27.215Z,76.90
2023-02-11T05:31:47.805Z,79.45
2023-02-11T05:33:08.482Z,88.40
2023-02-11T05:34:29.101Z,79.27
2023-02-11T05:35:50.124Z,75.80
2023-02-11T05:37:11.350Z,79.53
2023-02-11T05:38:32.393Z,84.97
2023-02-11T05:39:53.159Z,102.03
2023-02-11T05:41:13.894Z,75.82
2023-02-11T05:42:36.005Z,78.30
2023-02-11T05:43:56.500Z,80.55
2023-02-11T05:45:17.294Z,75.57
2023-02-11T05:46:38.129Z,93.63
2023-02-11T05:47:58.724Z,79.70
2023-02-11T05:49:19.428Z,91.75
2023-02-11T05:50:40.138Z,84.87
2023-02-11T05:52:00.705Z,90.10
2023-02-11T05:53:21.433Z,71.47
2023-02-11T05:54:42.448Z,81.40
2023-02-11T05:56:03.103Z,92.33
2023-02-11T05:57:23.502Z,78.73
2023-02-11T05:58:45.602Z,98.47
2023-02-11T06:00:07.241Z,80.55
2023-02-11T06:01:28.039Z,90.43
2023-02-11T06:02:48.801Z,73.95
2023-02-11T06:04:09.922Z,80.95
2023-02-11T06:05:30.437Z,82.07
2023-02-11T06:06:50.980Z,85.95
2023-02-11T06:08:12.192Z,88.70
2023-02-11T06:09:32.603Z,86.07
2023-02-11T06:10:53.299Z,87.28
2023-02-11T06:12:13.823Z,77.60
2023-02-11T06:13:34.861Z,82.07
2023-02-11T06:14:57.008Z,83.53
2023-02-11T06:16:17.777Z,82.05
2023-02-11T06:17:38.343Z,77.80
2023-02-11T06:18:59.397Z,89.70
2023-02-11T06:20:20.505Z,88.80
2023-02-11T06:21:44.215Z,87.05
2023-02-11T06:23:04.970Z,75.30
2023-02-11T06:24:48.100Z,94.90
2023-02-11T06:26:07.612Z,81.00
2023-02-11T06:27:28.739Z,88.90
2023-02-11T06:28:49.711Z,86.68
2023-02-11T06:30:12.299Z,114.60
2023-02-11T06:31:33.060Z,95.65
2023-02-11T06:32:53.761Z,82.53
2023-02-11T06:34:14.384Z,77.27
2023-02-11T06:35:35.226Z,100.05
2023-02-11T06:36:56.268Z,91.78
2023-02-11T06:38:17.264Z,89.57
2023-02-11T06:39:38.132Z,90.20
2023-02-11T06:40:58.919Z,81.68
2023-02-11T06:42:19.632Z,96.57
2023-02-11T06:43:41.081Z,97.78
2023-02-11T06:45:01.561Z,117.82
2023-02-11T06:46:23.525Z,86.15
2023-02-11T06:47:44.492Z,103.68
2023-02-11T06:49:05.205Z,103.93
2023-02-11T06:50:25.962Z,116.43
2023-02-11T06:51:46.525Z,86.68
2023-02-11T06:53:07.264Z,91.75
2023-02-11T06:54:28.122Z,93.35
2023-02-11T06:55:49.187Z,86.80
2023-02-11T06:57:09.872Z,92.45
2023-02-11T06:58:30.752Z,86.97
2023-02-11T06:59:51.884Z,95.07
2023-02-11T07:01:15.870Z,89.63
2023-02-11T07:02:38.259Z,84.05
2023-02-11T07:03:58.974Z,111.80
2023-02-11T07:05:19.786Z,85.13
2023-02-11T07:06:40.252Z,101.47
2023-02-11T07:08:01.083Z,93.55
2023-02-11T07:09:21.845Z,98.38
2023-02-11T07:10:42.692Z,103.00
2023-02-11T07:12:03.638Z,87.90
2023-02-11T07:13:23.858Z,88.43
2023-02-11T07:14:44.754Z,83.65
2023-02-11T07:16:06.932Z,91.72
2023-02-11T07:17:27.528Z,90.43
2023-02-11T07:18:49.977Z,88.65
2023-02-11T07:20:11.122Z,109.47
2023-02-11T07:21:31.884Z,90.53
2023-02-11T07:22:52.750Z,99.75
2023-02-11T07:24:13.480Z,104.20
2023-02-11T07:25:35.972Z,96.05
2023-02-11T07:26:56.655Z,103.63
2023-02-11T07:28:17.389Z,97.38
2023-02-11T07:29:38.286Z,86.07
2023-02-11T07:30:59.189Z,88.05
2023-02-11T07:32:20.000Z,108.97
2023-02-11T07:33:40.976Z,102.72
2023-02-11T07:35:02.795Z,86.55
2023-02-11T07:36:24.088Z,93.93
2023-02-11T07:39:05.640Z,83.55
2023-02-11T07:40:26.276Z,85.20
2023-02-11T07:41:47.316Z,111.43
2023-02-11T07:43:07.805Z,95.15
2023-02-11T07:44:28.744Z,97.18
2023-02-11T07:45:49.690Z,91.38
2023-02-11T07:47:10.546Z,86.95
2023-02-11T07:48:31.281Z,82.55
2023-02-11T07:49:53.966Z,82.13
2023-02-11T07:51:20.686Z,88.15
2023-02-11T07:52:41.384Z,96.18
2023-02-11T07:54:02.818Z,82.43
2023-02-11T07:55:23.562Z,94.82
2023-02-11T07:56:44.315Z,84.78
2023-02-11T07:58:05.409Z,92.60
2023-02-11T07:59:26.180Z,96.85
2023-02-11T08:00:46.767Z,95.67
2023-02-11T08:02:07.254Z,99.30
2023-02-11T08:03:28.048Z,91.50
2023-02-11T08:04:48.599Z,100.95
2023-02-11T08:06:10.997Z,92.35
2023-02-11T08:07:32.809Z,100.05
2023-02-11T08:08:53.576Z,86.43
2023-02-11T08:10:13.913Z,90.05
2023-02-11T08:11:34.775Z,86.90
2023-02-11T08:12:56.389Z,102.70
2023-02-11T08:14:17.346Z,91.75
2023-02-11T08:15:37.934Z,89.85
2023-02-11T08:16:58.670Z,86.20
2023-02-11T08:18:19.219Z,74.47
2023-02-11T08:19:39.938Z,84.60
2023-02-11T08:21:04.731Z,92.63
2023-02-11T08:22:25.737Z,118.20
2023-02-11T08:23:48.176Z,87.60
2023-02-11T08:25:09.722Z,89.32
2023-02-11T08:26:32.002Z,87.05
2023-02-11T08:27:52.832Z,84.82
2023-02-11T08:29:14.936Z,98.07
2023-02-11T08:30:35.528Z,73.57
2023-02-11T08:31:56.429Z,92.80
2023-02-11T08:33:17.083Z,82.45
2023-02-11T08:34:37.770Z,95.65
2023-02-11T08:35:58.451Z,85.38
2023-02-11T08:37:19.229Z,84.23
2023-02-11T08:38:39.701Z,84.22
2023-02-11T08:40:01.998Z,100.32
2023-02-11T08:41:22.479Z,90.28
2023-02-11T08:42:43.046Z,78.28
2023-02-11T08:44:03.948Z,78.38
2023-02-11T08:45:24.861Z,75.97
2023-02-11T08:46:45.793Z,76.80
2023-02-11T08:48:06.355Z,86.23
2023-02-11T08:49:30.538Z,82.72
2023-02-11T08:50:51.186Z,76.90
2023-02-11T08:52:11.953Z,85.35
2023-02-11T08:53:32.740Z,73.13
2023-02-11T08:54:53.654Z,80.95
2023-02-11T08:56:16.878Z,82.28
2023-02-11T08:57:37.502Z,72.93
2023-02-11T08:58:58.685Z,69.97
2023-02-11T09:00:20.373Z,72.47
2023-02-11T09:01:40.847Z,73.10
2023-02-11T09:03:01.450Z,64.40
2023-02-11T09:04:22.100Z,74.97
2023-02-11T09:05:43.077Z,67.05
2023-02-11T09:07:03.732Z,64.95
2023-02-11T09:08:25.616Z,69.88
2023-02-11T09:09:46.233Z,74.07
2023-02-11T09:11:07.466Z,61.28
2023-02-11T09:12:29.482Z,78.40
2023-02-11T09:13:52.564Z,71.32
2023-02-11T09:15:14.754Z,64.88
2023-02-11T09:16:36.478Z,68.70
2023-02-11T09:17:57.505Z,57.45
2023-02-11T09:19:18.537Z,67.47
2023-02-11T09:20:39.552Z,58.83
2023-02-11T09:22:00.286Z,68.03
2023-02-11T09:23:21.222Z,63.28
2023-02-11T09:24:42.030Z,54.55
2023-02-11T09:26:08.143Z,57.05
2023-02-11T09:27:30.893Z,54.65
2023-02-11T09:28:51.637Z,51.60
2023-02-11T09:30:13.036Z,48.78
2023-02-11T09:31:34.619Z,50.13
2023-02-11T09:32:55.326Z,45.33
2023-02-11T09:34:16.248Z,43.60
2023-02-11T09:35:36.761Z,49.08
2023-02-11T09:36:57.640Z,43.13
2023-02-11T09:38:18.478Z,46.80
2023-02-11T09:39:39.363Z,53.33
2023-02-11T09:40:59.823Z,44.40
2023-02-11T09:42:37.270Z,46.53
2023-02-11T09:43:59.145Z,45.08
2023-02-11T09:45:21.906Z,46.20
2023-02-11T09:46:43.254Z,45.05
2023-02-11T09:48:07.728Z,47.00
2023-02-11T09:49:33.655Z,40.03
2023-02-11T09:50:57.193Z,41.65
2023-02-11T09:52:25.157Z,41.17
2023-02-11T09:53:46.060Z,40.78
2023-02-11T09:55:15.155Z,45.20
2023-02-11T09:56:36.793Z,40.13
2023-02-11T09:59:18.930Z,34.28
2023-02-11T10:00:44.331Z,37.40
2023-02-11T10:02:09.816Z,44.45
2023-02-11T10:03:43.132Z,35.72
2023-02-11T10:05:34.453Z,32.13
2023-02-11T10:06:57.857Z,37.25
2023-02-11T10:08:23.775Z,32.03
2023-02-11T10:10:04.688Z,34.03
2023-02-11T10:11:32.350Z,42.92
2023-02-11T10:13:09.081Z,40.90
2023-02-11T10:14:54.131Z,30.13
2023-02-11T10:16:24.293Z,31.88
2023-02-11T10:17:58.095Z,31.23
2023-02-11T10:19:30.916Z,31.95
2023-02-11T10:21:03.648Z,27.05
2023-02-11T10:22:27.558Z,31.33
2023-02-11T10:23:51.609Z,32.58
2023-02-11T10:25:20.483Z,30.63
2023-02-11T10:26:42.167Z,30.67
2023-02-11T10:28:12.762Z,26.55
2023-02-11T10:29:37.152Z,27.65
2023-02-11T10:31:01.119Z,26.63
2023-02-11T10:32:29.800Z,28.40
2023-02-11T10:33:54.408Z,31.08
2023-02-11T10:35:16.754Z,26.60
2023-02-11T10:36:38.964Z,24.40
2023-02-11T10:37:59.799Z,28.00
2023-02-11T10:39:22.159Z,27.25
2023-02-11T10:40:42.851Z,26.38
2023-02-11T10:42:06.951Z,34.45
2023-02-11T10:43:30.913Z,28.42
2023-02-11T10:44:58.181Z,32.47
2023-02-11T10:46:22.689Z,31.70
2023-02-11T10:47:44.028Z,29.25
2023-02-11T10:49:04.439Z,31.50
2023-02-11T10:50:27.597Z,25.63
2023-02-11T10:51:48.022Z,28.98
2023-02-11T10:53:16.032Z,32.30
2023-02-11T10:54:36.923Z,26.23
2023-02-11T10:55:57.741Z,29.73
2023-02-11T10:57:19.531Z,27.15
2023-02-11T10:58:46.209Z,26.92
2023-02-11T11:00:24.057Z,33.13
2023-02-11T11:01:46.670Z,26.30
2023-02-11T11:03:17.917Z,26.35
2023-02-11T11:04:41.179Z,29.33
2023-02-11T11:06:02.996Z,28.23
2023-02-11T11:07:25.706Z,32.22
2023-02-11T11:08:47.867Z,26.63
2023-02-11T11:10:26.670Z,25.85
2023-02-11T11:11:52.213Z,26.70
2023-02-11T11:13:27.815Z,27.63
2023-02-11T11:14:55.111Z,31.30
2023-02-11T11:16:22.660Z,34.05
2023-02-11T11:17:43.554Z,33.90
2023-02-11T11:19:20.406Z,26.83
2023-02-11T11:20:45.133Z,27.85
2023-02-11T11:22:05.553Z,33.70
2023-02-11T11:23:26.624Z,30.77
2023-02-11T11:24:48.080Z,29.40
2023-02-11T11:26:11.847Z,31.15
2023-02-11T11:27:33.077Z,30.75
2023-02-11T11:29:07.927Z,29.88
2023-02-11T11:30:34.175Z,33.75
2023-02-11T11:31:58.119Z,31.73
2023-02-11T11:33:23.243Z,26.98
2023-02-11T11:34:48.390Z,33.85
2023-02-11T11:36:10.816Z,27.90
2023-02-11T11:37:33.203Z,32.63
2023-02-11T11:38:56.605Z,38.17
2023-02-11T11:40:23.371Z,32.22
2023-02-11T11:41:50.748Z,30.00
2023-02-11T11:43:21.308Z,27.80
2023-02-11T11:44:56.627Z,30.95
2023-02-11T11:46:23.812Z,30.45
2023-02-11T11:47:48.324Z,31.38
2023-02-11T11:49:21.228Z,28.50
2023-02-11T11:50:43.656Z,26.27
2023-02-11T11:52:12.048Z,28.70
2023-02-11T11:53:38.700Z,33.90
2023-02-11T11:55:03.385Z,28.23
2023-02-11T11:56:26.794Z,31.52
2023-02-11T11:57:48.756Z,37.50
2023-02-11T11:59:12.032Z,27.73
2023-02-11T12:00:36.450Z,27.67
2023-02-11T12:02:21.837Z,32.28
2023-02-11T12:04:10.961Z,31.58
2023-02-11T12:05:36.279Z,32.30
2023-02-11T12:07:11.959Z,30.42
2023-02-11T12:08:39.708Z,28.92
2023-02-11T12:10:28.909Z,35.40
2023-02-11T12:12:04.749Z,29.73
2023-02-11T12:13:35.819Z,29.83
2023-02-11T12:15:03.347Z,29.10
2023-02-11T12:16:31.899Z,32.40
2023-02-11T12:18:05.936Z,31.25
2023-02-11T12:19:42.495Z,32.65
2023-02-11T12:21:16.635Z,35.25
2023-02-11T12:22:44.258Z,32.25
2023-02-11T12:24:18.024Z,31.05
2023-02-11T12:25:43.729Z,29.13
2023-02-11T12:27:08.301Z,28.42
2023-02-11T12:28:37.367Z,27.38
2023-02-11T12:30:04.214Z,30.23
2023-02-11T12:31:55.806Z,32.75
2023-02-11T12:33:29.746Z,30.52
2023-02-11T12:35:29.632Z,33.97
2023-02-11T12:37:02.856Z,23.15
2023-02-11T12:38:48.764Z,28.88
2023-02-11T12:40:17.064Z,28.80
2023-02-11T12:41:58.687Z,23.65
2023-02-11T12:43:26.376Z,33.05
2023-02-11T12:45:03.321Z,30.33
2023-02-11T12:46:39.763Z,29.65
2023-02-11T12:48:13.969Z,28.00
2023-02-11T12:49:51.667Z,25.08
2023-02-11T12:51:22.027Z,24.90
2023-02-11T12:53:01.558Z,27.35
2023-02-11T12:54:31.462Z,24.20
2023-02-11T12:55:57.376Z,24.92
2023-02-11T12:57:23.744Z,23.30
2023-02-11T12:58:45.919Z,27.27
2023-02-11T13:00:16.943Z,23.65
2023-02-11T13:01:41.652Z,24.55
2023-02-11T13:03:16.455Z,23.45
2023-02-11T13:04:43.504Z,27.20
2023-02-11T13:06:13.635Z,27.83
2023-02-11T13:07:56.033Z,24.75
2023-02-11T13:09:19.520Z,23.95
2023-02-11T13:10:41.847Z,24.02
2023-02-11T13:12:04.118Z,27.27
2023-02-11T13:13:27.729Z,23.17
2023-02-11T13:14:49.109Z,20.58
2023-02-11T13:16:19.808Z,24.88
2023-02-11T13:17:48.486Z,27.25
2023-02-11T13:19:17.409Z,23.85
2023-02-11T13:20:45.601Z,25.55
2023-02-11T13:22:09.399Z,21.88
2023-02-11T13:23:49.186Z,22.67
2023-02-11T13:25:19.957Z,14.90
2023-02-11T13:26:46.135Z,15.75
2023-02-11T13:28:19.276Z,19.75
2023-02-11T13:30:04.105Z,24.52
2023-02-11T13:31:25.222Z,13.60
2023-02-11T13:33:16.746Z,24.10
2023-02-11T13:34:57.655Z,17.50
2023-02-11T13:36:22.408Z,18.23
2023-02-11T13:37:47.746Z,14.60
2023-02-11T13:39:19.558Z,19.02
2023-02-11T13:40:40.452Z,15.13
2023-02-11T13:42:03.449Z,15.48
2023-02-11T13:43:26.148Z,18.67
2023-02-11T13:44:46.648Z,16.02
2023-02-11T13:46:10.909Z,20.10
2023-02-11T13:47:33.140Z,19.77
2023-02-11T13:48:54.305Z,24.02
2023-02-11T13:50:22.049Z,16.35
2023-02-11T13:51:44.450Z,16.30
2023-02-11T13:53:06.979Z,15.02
2023-02-11T13:54:33.521Z,18.17
2023-02-11T13:56:06.009Z,14.43
2023-02-11T13:57:35.281Z,20.17
2023-02-11T13:58:57.006Z,17.02
2023-02-11T14:00:49.055Z,18.90
2023-02-11T14:04:07.400Z,20.13
2023-02-11T14:05:30.192Z,16.10
2023-02-11T14:07:24.533Z,21.48
2023-02-11T14:09:00.800Z,14.60
2023-02-11T14:10:48.946Z,19.30
2023-02-11T14:12:39.503Z,20.38
2023-02-11T14:14:17.236Z,19.33
2023-02-11T14:15:41.277Z,16.85
2023-02-11T14:17:29.618Z,20.20
2023-02-11T14:19:00.729Z,19.70
2023-02-11T14:20:42.486Z,13.57
2023-02-11T14:22:03.471Z,9.95
2023-02-11T14:23:26.812Z,20.05
2023-02-11T14:24:51.659Z,16.70
2023-02-11T14:26:28.950Z,18.80
2023-02-11T14:27:52.730Z,16.27
2023-02-11T14:29:17.825Z,15.05
2023-02-11T14:30:54.944Z,14.60
2023-02-11T14:32:26.764Z,15.98
2023-02-11T14:35:25.329Z,18.20
2023-02-11T14:37:02.721Z,17.33
2023-02-11T14:38:29.706Z,14.82
2023-02-11T14:39:58.579Z,13.55
2023-02-11T14:41:22.370Z,17.73
2023-02-11T14:42:43.972Z,17.17
2023-02-11T14:45:28.264Z,14.38
2023-02-11T14:46:50.100Z,15.60
2023-02-11T14:48:15.909Z,17.17
2023-02-11T14:49:39.651Z,15.13
2023-02-11T14:51:02.657Z,18.02
2023-02-11T14:52:26.829Z,14.77
2023-02-11T14:53:52.452Z,14.40
2023-02-11T14:55:19.290Z,15.88
2023-02-11T14:56:40.005Z,18.88
2023-02-11T14:58:22.430Z,19.58
2023-02-11T14:59:56.483Z,17.30
2023-02-11T15:01:29.199Z,18.20
2023-02-11T15:02:49.681Z,14.32
2023-02-11T15:04:24.496Z,15.10
2023-02-11T15:05:45.229Z,18.92
2023-02-11T15:07:08.516Z,13.32
2023-02-11T15:08:30.497Z,16.65
2023-02-11T15:09:54.020Z,16.63
2023-02-11T15:11:16.804Z,14.93
2023-02-11T15:12:38.156Z,17.23
2023-02-11T15:14:02.057Z,15.35
2023-02-11T15:15:22.546Z,14.13
2023-02-11T15:16:44.011Z,15.43
2023-02-11T15:18:04.982Z,15.13
2023-02-11T15:19:31.780Z,12.23
2023-02-11T15:20:54.555Z,20.60
2023-02-11T15:22:19.023Z,18.02
2023-02-11T15:23:39.731Z,11.52
2023-02-11T15:25:08.597Z,14.95
2023-02-11T15:26:29.909Z,16.90
2023-02-11T15:27:53.871Z,15.13
2023-02-11T15:29:16.325Z,11.88
2023-02-11T15:30:37.332Z,18.05
2023-02-11T15:32:13.961Z,14.55
2023-02-11T15:33:34.884Z,16.08
2023-02-11T15:34:55.767Z,17.55
2023-02-11T15:36:17.690Z,17.70
2023-02-11T15:37:39.465Z,15.18
2023-02-11T15:39:20.161Z,12.57
2023-02-11T15:40:53.279Z,15.50
2023-02-11T15:42:19.338Z,18.23
2023-02-11T15:43:44.185Z,14.70
2023-02-11T15:45:10.219Z,18.13
2023-02-11T15:46:37.532Z,14.15
2023-02-11T15:48:05.657Z,16.52
2023-02-11T15:49:26.565Z,13.80
2023-02-11T15:50:51.033Z,13.00
2023-02-11T15:52:13.510Z,13.55
2023-02-11T15:53:37.698Z,12.35
2023-02-11T15:55:00.005Z,17.38
2023-02-11T15:56:24.369Z,20.33
2023-02-11T15:57:46.229Z,13.63
2023-02-11T15:59:14.474Z,14.32
2023-02-11T16:00:37.389Z,13.07
2023-02-11T16:02:05.004Z,13.20
2023-02-11T16:03:27.767Z,15.05
2023-02-11T16:04:50.090Z,16.20
2023-02-11T16:06:23.075Z,16.30
2023-02-11T16:07:48.650Z,18.23
2023-02-11T16:09:25.170Z,18.00
2023-02-11T16:10:55.008Z,11.70
2023-02-11T16:12:24.189Z,15.10
2023-02-11T16:13:46.326Z,16.85
2023-02-11T16:15:45.598Z,16.75
2023-02-11T16:17:07.921Z,17.67
2023-02-11T16:18:38.180Z,14.25
2023-02-11T16:19:59.316Z,12.63
2023-02-11T16:21:20.701Z,13.75
2023-02-11T16:22:41.431Z,12.52
2023-02-11T16:24:03.586Z,14.75
2023-02-11T16:25:24.279Z,17.58
2023-02-11T16:26:48.185Z,17.20
2023-02-11T16:28:15.450Z,13.73
2023-02-11T16:29:37.413Z,16.73
2023-02-11T16:32:20.360Z,20.83
2023-02-11T16:33:41.143Z,15.38
2023-02-11T16:35:02.073Z,18.98
2023-02-11T16:36:25.161Z,13.90
2023-02-11T16:37:46.216Z,17.73
2023-02-11T16:39:06.725Z,14.90
2023-02-11T16:40:27.516Z,18.15
2023-02-11T16:41:48.430Z,14.27
2023-02-11T16:43:09.314Z,13.35
2023-02-11T16:44:31.179Z,16.02
2023-02-11T16:45:52.268Z,19.40
2023-02-11T16:47:19.548Z,15.10
2023-02-11T16:48:39.908Z,15.75
2023-02-11T16:50:01.317Z,16.98
2023-02-11T16:52:43.359Z,14.45
2023-02-11T16:54:04.293Z,21.70
2023-02-11T16:55:25.278Z,15.30
2023-02-11T16:56:45.966Z,13.73
2023-02-11T16:58:06.484Z,15.90
2023-02-11T16:59:28.609Z,13.05
2023-02-11T17:00:58.386Z,18.55
2023-02-11T17:02:24.002Z,18.02
2023-02-11T17:03:44.825Z,18.45
2023-02-11T17:05:07.688Z,18.50
2023-02-11T17:06:28.743Z,14.75
2023-02-11T17:07:49.346Z,14.30
2023-02-11T17:09:11.978Z,19.33
2023-02-11T17:10:32.242Z,16.88
2023-02-11T17:11:53.472Z,18.02
2023-02-11T17:14:34.900Z,20.83
2023-02-11T17:15:56.961Z,19.88
2023-02-11T17:17:17.570Z,16.63
2023-02-11T17:18:38.045Z,19.30
2023-02-11T17:19:58.800Z,16.23
2023-02-11T17:21:19.185Z,17.77
2023-02-11T17:22:39.910Z,21.17
2023-02-11T17:24:00.680Z,14.93
2023-02-11T17:25:21.219Z,17.80
2023-02-11T17:26:42.843Z,14.50
2023-02-11T17:28:03.895Z,23.27
2023-02-11T17:29:26.404Z,18.30
2023-02-11T17:30:47.416Z,17.40
2023-02-11T17:32:09.705Z,22.48
2023-02-11T17:33:30.137Z,16.73
2023-02-11T17:34:52.919Z,20.45
2023-02-11T17:36:13.985Z,17.85
2023-02-11T17:37:34.657Z,17.38
2023-02-11T17:38:55.377Z,21.52
2023-02-11T17:40:16.238Z,21.30
2023-02-11T17:41:37.113Z,20.47
2023-02-11T17:42:57.590Z,21.73
2023-02-11T17:44:18.169Z,20.05
2023-02-11T17:45:41.693Z,20.52
2023-02-11T17:47:02.100Z,20.50
2023-02-11T17:48:24.458Z,16.60
2023-02-11T17:49:45.021Z,20.45
2023-02-11T17:51:06.347Z,20.77
2023-02-11T17:52:26.881Z,22.63
2023-02-11T17:53:48.182Z,24.40
2023-02-11T17:55:08.717Z,20.45
2023-02-11T17:56:32.073Z,20.48
2023-02-11T17:57:52.601Z,23.63
2023-02-11T17:59:13.906Z,20.27
2023-02-11T18:01:54.914Z,16.02
2023-02-11T18:03:15.445Z,21.23
2023-02-11T18:04:37.543Z,22.90
2023-02-11T18:05:59.799Z,19.23
2023-02-11T18:07:20.477Z,16.60
2023-02-11T18:08:43.975Z,23.23
2023-02-11T18:10:06.405Z,20.23
2023-02-11T18:11:27.115Z,20.92
2023-02-11T18:12:48.270Z,21.17
2023-02-11T18:14:10.485Z,22.33
2023-02-11T18:15:31.007Z,24.85
2023-02-11T18:16:52.346Z,24.43
2023-02-11T18:18:14.479Z,23.00
2023-02-11T18:19:35.089Z,42.35
2023-02-11T18:21:01.797Z,26.70